createdAt,value
2016-12-08T00:00:18.930Z,5.89
2016-12-08T00:01:18.934Z,5.83
2016-12-08T00:02:18.914Z,5.83
2016-12-08T00:03:18.896Z,5.89
2016-12-08T00:04:18.892Z,5.83
2016-12-08T00:05:18.874Z,5.86
2016-12-08T00:06:18.868Z,5.82
2016-12-08T00:07:18.848Z,5.81
2016-12-08T00:08:18.843Z,5.76
2016-12-08T00:09:18.831Z,5.68
2016-12-08T00:10:18.818Z,5.72
2016-12-08T00:11:18.808Z,5.63
2016-12-08T00:12:18.796Z,5.63
2016-12-08T00:13:18.782Z,5.58
2016-12-08T00:14:18.774Z,5.53
2016-12-08T00:15:18.760Z,5.58
2016-12-08T00:16:18.748Z,5.57
2016-12-08T00:17:18.743Z,5.56
2016-12-08T00:18:18.723Z,5.56
2016-12-08T00:19:18.712Z,5.58
2016-12-08T00:20:18.697Z,5.58
2016-12-08T00:21:18.994Z,5.48
2016-12-08T00:22:18.682Z,5.57
2016-12-08T00:23:18.663Z,5.46
2016-12-08T00:24:18.654Z,5.49
2016-12-08T00:25:18.640Z,5.58
2016-12-08T00:26:18.633Z,5.49
2016-12-08T00:27:18.622Z,5.4
2016-12-08T00:28:18.603Z,5.45
2016-12-08T00:29:18.634Z,5.42
2016-12-08T00:30:18.583Z,5.43
2016-12-08T00:31:18.574Z,5.42
2016-12-08T00:32:18.558Z,5.39
2016-12-08T00:33:18.553Z,5.36
2016-12-08T00:34:18.545Z,5.33
2016-12-08T00:35:18.525Z,5.36
2016-12-08T00:36:18.514Z,5.36
2016-12-08T00:37:18.510Z,5.3
2016-12-08T00:38:18.491Z,5.3
2016-12-08T00:39:18.479Z,5.31
2016-12-08T00:40:18.466Z,5.27
2016-12-08T00:41:18.457Z,5.3
2016-12-08T00:42:18.741Z,5.33
2016-12-08T00:43:18.428Z,5.2
2016-12-08T00:44:18.415Z,5.27
2016-12-08T00:45:18.406Z,5.21
2016-12-08T00:46:18.398Z,5.24
2016-12-08T00:47:18.376Z,5.3
2016-12-08T00:48:18.376Z,5.22
2016-12-08T00:49:18.360Z,5.22
2016-12-08T00:50:18.344Z,5.25
2016-12-08T00:51:18.337Z,5.3
2016-12-08T00:52:18.327Z,5.22
2016-12-08T00:53:18.315Z,5.24
2016-12-08T00:54:18.294Z,5.25
2016-12-08T00:55:18.284Z,5.25
2016-12-08T00:56:18.270Z,5.24
2016-12-08T00:57:18.269Z,5.31
2016-12-08T00:58:18.248Z,5.24
2016-12-08T00:59:18.239Z,5.28
2016-12-08T01:00:18.233Z,5.27
2016-12-08T01:01:18.214Z,5.21
2016-12-08T01:02:18.202Z,5.2
2016-12-08T01:03:18.198Z,5.25
2016-12-08T01:04:18.184Z,5.27
2016-12-08T01:05:18.168Z,5.35
2016-12-08T01:06:18.154Z,5.35
2016-12-08T01:07:18.471Z,5.39
2016-12-08T01:08:18.126Z,5.38
2016-12-08T01:09:18.118Z,5.45
2016-12-08T01:10:18.105Z,5.46
2016-12-08T01:11:18.107Z,5.57
2016-12-08T01:12:18.081Z,5.45
2016-12-08T01:13:18.076Z,5.56
2016-12-08T01:14:18.060Z,5.58
2016-12-08T01:15:18.047Z,5.54
2016-12-08T01:16:18.037Z,5.57
2016-12-08T01:17:18.027Z,5.65
2016-12-08T01:18:18.015Z,5.64
2016-12-08T01:19:18.008Z,5.71
2016-12-08T01:20:17.988Z,5.72
2016-12-08T01:21:17.979Z,5.78
2016-12-08T01:22:17.965Z,5.81
2016-12-08T01:23:17.951Z,5.91
2016-12-08T01:24:17.949Z,5.9
2016-12-08T01:25:17.932Z,5.91
2016-12-08T01:26:17.920Z,5.85
2016-12-08T01:27:17.906Z,5.82
2016-12-08T01:28:17.897Z,5.85
2016-12-08T01:29:17.895Z,5.81
2016-12-08T01:30:17.872Z,5.91
2016-12-08T01:31:17.856Z,5.79
2016-12-08T01:32:17.848Z,5.9
2016-12-08T01:33:17.838Z,5.9
2016-12-08T01:34:17.825Z,5.86
2016-12-08T01:35:17.820Z,5.96
2016-12-08T01:36:17.804Z,5.93
2016-12-08T01:37:17.795Z,5.96
2016-12-08T01:38:17.787Z,5.93
2016-12-08T01:39:17.769Z,5.93
2016-12-08T01:40:17.755Z,5.96
2016-12-08T01:41:18.058Z,5.94
2016-12-08T01:42:17.733Z,5.93
2016-12-08T01:43:18.018Z,5.99
2016-12-08T01:44:17.710Z,5.9
2016-12-08T01:45:17.696Z,5.91
2016-12-08T01:46:17.992Z,6
2016-12-08T01:47:17.673Z,5.85
2016-12-08T01:48:17.660Z,5.85
2016-12-08T01:49:17.653Z,5.86
2016-12-08T01:50:17.638Z,5.83
2016-12-08T01:51:17.624Z,5.79
2016-12-08T01:52:17.616Z,5.81
2016-12-08T01:53:17.605Z,5.74
2016-12-08T01:54:17.591Z,5.79
2016-12-08T01:55:17.580Z,5.76
2016-12-08T01:56:17.566Z,5.75
2016-12-08T01:57:17.563Z,5.63
2016-12-08T01:58:17.550Z,5.64
2016-12-08T01:59:17.542Z,5.58
2016-12-08T02:00:17.520Z,5.6
2016-12-08T02:01:17.511Z,5.6
2016-12-08T02:02:17.496Z,5.57
2016-12-08T02:03:17.484Z,5.58
2016-12-08T02:04:17.479Z,5.54
2016-12-08T02:05:17.463Z,5.51
2016-12-08T02:06:17.456Z,5.58
2016-12-08T02:07:17.442Z,5.56
2016-12-08T02:08:17.429Z,5.48
2016-12-08T02:09:17.416Z,5.49
2016-12-08T02:10:17.402Z,5.45
2016-12-08T02:11:17.393Z,5.4
2016-12-08T02:12:17.380Z,5.45
2016-12-08T02:13:17.668Z,5.45
2016-12-08T02:14:17.353Z,5.45
2016-12-08T02:15:17.339Z,5.39
2016-12-08T02:16:17.340Z,5.48
2016-12-08T02:17:17.319Z,5.35
2016-12-08T02:18:17.306Z,5.39
2016-12-08T02:19:17.304Z,5.35
2016-12-08T02:20:17.286Z,5.38
2016-12-08T02:21:17.274Z,5.42
2016-12-08T02:22:17.259Z,5.38
2016-12-08T02:23:17.251Z,5.39
2016-12-08T02:24:17.235Z,5.28
2016-12-08T02:25:17.224Z,5.28
2016-12-08T02:26:17.216Z,5.28
2016-12-08T02:27:17.202Z,5.25
2016-12-08T02:28:17.186Z,5.22
2016-12-08T02:29:17.174Z,5.25
2016-12-08T02:30:17.159Z,5.22
2016-12-08T02:31:17.165Z,5.22
2016-12-08T02:32:17.139Z,5.21
2016-12-08T02:33:17.128Z,5.28
2016-12-08T02:34:17.116Z,5.18
2016-12-08T02:35:17.107Z,5.27
2016-12-08T02:36:17.095Z,5.2
2016-12-08T02:37:17.084Z,5.13
2016-12-08T02:38:17.072Z,5.17
2016-12-08T02:39:17.051Z,5.25
2016-12-08T02:40:17.049Z,5.18
2016-12-08T02:41:17.034Z,5.18
2016-12-08T02:42:17.022Z,5.18
2016-12-08T02:43:17.011Z,5.1
2016-12-08T02:44:16.995Z,5.21
2016-12-08T02:45:17.013Z,5.06
2016-12-08T02:46:16.976Z,5.06
2016-12-08T02:47:16.994Z,5.07
2016-12-08T02:48:16.946Z,5.09
2016-12-08T02:49:16.937Z,5.09
2016-12-08T02:50:16.923Z,5.13
2016-12-08T02:51:16.915Z,5.07
2016-12-08T02:52:16.904Z,5.07
2016-12-08T02:53:16.891Z,5.03
2016-12-08T02:54:16.873Z,5.04
2016-12-08T02:55:16.902Z,5.03
2016-12-08T02:56:16.858Z,5.03
2016-12-08T02:57:16.839Z,5.09
2016-12-08T02:58:16.827Z,5.04
2016-12-08T02:59:16.820Z,5.12
2016-12-08T03:00:16.842Z,5.17
2016-12-08T03:01:16.797Z,5.04
2016-12-08T03:02:16.783Z,5.04
2016-12-08T03:03:16.771Z,5.1
2016-12-08T03:04:16.784Z,5.06
2016-12-08T03:05:16.744Z,5.09
2016-12-08T03:06:16.726Z,5.12
2016-12-08T03:07:16.717Z,5.17
2016-12-08T03:08:16.714Z,5.13
2016-12-08T03:09:16.697Z,5.03
2016-12-08T03:10:16.687Z,5.09
2016-12-08T03:11:16.676Z,5.12
2016-12-08T03:12:16.660Z,5.06
2016-12-08T03:13:16.652Z,5.09
2016-12-08T03:14:16.634Z,5.07
2016-12-08T03:15:16.621Z,5.12
2016-12-08T03:16:16.610Z,5.06
2016-12-08T03:17:16.599Z,5.12
2016-12-08T03:18:16.593Z,5.07
2016-12-08T03:19:16.577Z,5.12
2016-12-08T03:20:16.557Z,5.1
2016-12-08T03:21:16.551Z,5.04
2016-12-08T03:22:16.533Z,5.12
2016-12-08T03:23:16.526Z,5.18
2016-12-08T03:24:16.513Z,5.13
2016-12-08T03:25:16.499Z,5.1
2016-12-08T03:26:16.485Z,5.15
2016-12-08T03:27:16.478Z,5.13
2016-12-08T03:28:16.465Z,5.18
2016-12-08T03:29:16.452Z,5.18
2016-12-08T03:30:16.442Z,5.13
2016-12-08T03:31:16.432Z,5.12
2016-12-08T03:32:16.412Z,5.07
2016-12-08T03:33:16.398Z,5.06
2016-12-08T03:34:16.391Z,5.1
2016-12-08T03:35:16.376Z,5.12
2016-12-08T03:36:16.364Z,5.02
2016-12-08T03:37:16.351Z,5.1
2016-12-08T03:38:16.362Z,5.06
2016-12-08T03:39:16.325Z,5.02
2016-12-08T03:40:16.315Z,5.03
2016-12-08T03:41:16.305Z,5.02
2016-12-08T03:42:16.296Z,5.06
2016-12-08T03:43:16.278Z,5.09
2016-12-08T03:44:16.266Z,5.07
2016-12-08T03:45:16.250Z,4.99
2016-12-08T03:46:16.241Z,5
2016-12-08T03:47:16.225Z,5
2016-12-08T03:48:16.215Z,4.99
2016-12-08T03:49:16.201Z,5
2016-12-08T03:50:16.188Z,5.03
2016-12-08T03:51:16.178Z,5.06
2016-12-08T03:52:16.163Z,5
2016-12-08T03:53:16.155Z,5
2016-12-08T03:54:16.138Z,4.99
2016-12-08T03:55:16.132Z,4.94
2016-12-08T03:56:16.150Z,4.96
2016-12-08T03:57:16.103Z,5.03
2016-12-08T03:58:16.089Z,5.02
2016-12-08T03:59:16.079Z,5
2016-12-08T04:00:16.064Z,4.97
2016-12-08T04:01:16.054Z,4.96
2016-12-08T04:02:16.044Z,5.02
2016-12-08T04:03:16.031Z,4.97
2016-12-08T04:04:16.021Z,4.92
2016-12-08T04:05:16.004Z,4.97
2016-12-08T04:06:15.995Z,4.97
2016-12-08T04:07:15.981Z,4.97
2016-12-08T04:08:15.969Z,5.02
2016-12-08T04:09:15.956Z,4.91
2016-12-08T04:10:15.944Z,4.96
2016-12-08T04:11:15.934Z,4.97
2016-12-08T04:12:15.922Z,4.97
2016-12-08T04:13:15.909Z,4.96
2016-12-08T04:14:15.933Z,4.96
2016-12-08T04:15:15.883Z,4.94
2016-12-08T04:16:15.870Z,4.96
2016-12-08T04:17:15.863Z,4.96
2016-12-08T04:18:15.848Z,5
2016-12-08T04:19:15.832Z,5
2016-12-08T04:20:15.827Z,4.89
2016-12-08T04:21:15.808Z,4.92
2016-12-08T04:22:15.795Z,4.89
2016-12-08T04:23:15.786Z,4.92
2016-12-08T04:24:15.774Z,4.88
2016-12-08T04:25:15.794Z,4.91
2016-12-08T04:26:15.751Z,4.97
2016-12-08T04:27:15.746Z,4.96
2016-12-08T04:28:15.724Z,4.89
2016-12-08T04:29:15.712Z,4.89
2016-12-08T04:30:15.701Z,4.92
2016-12-08T04:31:15.689Z,4.89
2016-12-08T04:32:15.676Z,4.89
2016-12-08T04:33:15.677Z,4.85
2016-12-08T04:34:15.651Z,4.85
2016-12-08T04:35:15.637Z,4.91
2016-12-08T04:36:15.628Z,4.91
2016-12-08T04:37:15.614Z,4.91
2016-12-08T04:38:15.603Z,4.86
2016-12-08T04:39:15.588Z,4.89
2016-12-08T04:40:15.609Z,4.86
2016-12-08T04:41:15.564Z,4.92
2016-12-08T04:42:15.551Z,4.92
2016-12-08T04:43:15.541Z,4.84
2016-12-08T04:44:15.526Z,4.88
2016-12-08T04:45:15.515Z,4.88
2016-12-08T04:46:15.503Z,4.91
2016-12-08T04:47:15.494Z,4.88
2016-12-08T04:48:15.482Z,4.89
2016-12-08T04:49:15.469Z,4.89
2016-12-08T04:50:15.454Z,4.92
2016-12-08T04:51:15.440Z,4.85
2016-12-08T04:52:15.430Z,4.89
2016-12-08T04:53:15.418Z,4.86
2016-12-08T04:54:15.410Z,4.85
2016-12-08T04:55:15.391Z,4.88
2016-12-08T04:56:15.384Z,4.89
2016-12-08T04:57:15.368Z,4.91
2016-12-08T04:58:15.357Z,4.91
2016-12-08T04:59:15.345Z,4.91
2016-12-08T05:00:15.331Z,4.89
2016-12-08T05:01:15.319Z,4.77
2016-12-08T05:02:15.306Z,4.8
2016-12-08T05:03:15.296Z,4.86
2016-12-08T05:04:15.285Z,4.8
2016-12-08T05:05:15.270Z,4.84
2016-12-08T05:06:15.256Z,4.89
2016-12-08T05:07:15.244Z,4.91
2016-12-08T05:08:15.235Z,4.92
2016-12-08T05:09:15.221Z,4.89
2016-12-08T05:10:15.207Z,4.92
2016-12-08T05:11:15.218Z,4.96
2016-12-08T05:12:15.185Z,4.92
2016-12-08T05:13:15.200Z,4.91
2016-12-08T05:14:15.161Z,5
2016-12-08T05:15:15.146Z,4.92
2016-12-08T05:16:15.139Z,4.99
2016-12-08T05:17:15.120Z,4.97
2016-12-08T05:18:15.111Z,5
2016-12-08T05:19:15.098Z,4.91
2016-12-08T05:20:15.085Z,4.96
2016-12-08T05:21:15.077Z,5.03
2016-12-08T05:22:15.067Z,4.97
2016-12-08T05:23:15.054Z,4.96
2016-12-08T05:24:15.050Z,4.94
2016-12-08T05:25:15.023Z,4.96
2016-12-08T05:26:15.015Z,4.97
2016-12-08T05:27:15.003Z,4.96
2016-12-08T05:28:14.993Z,4.92
2016-12-08T05:29:14.978Z,4.99
2016-12-08T05:30:14.968Z,4.92
2016-12-08T05:31:14.955Z,4.99
2016-12-08T05:32:14.941Z,4.96
2016-12-08T05:33:14.932Z,4.96
2016-12-08T05:34:14.920Z,4.99
2016-12-08T05:35:14.905Z,4.92
2016-12-08T05:36:14.891Z,4.92
2016-12-08T05:37:14.880Z,4.92
2016-12-08T05:38:14.869Z,4.94
2016-12-08T05:39:14.862Z,4.92
2016-12-08T05:40:14.844Z,4.96
2016-12-08T05:41:14.841Z,4.96
2016-12-08T05:42:14.823Z,4.99
2016-12-08T05:43:14.813Z,4.96
2016-12-08T05:44:14.795Z,5.02
2016-12-08T05:45:14.794Z,4.89
2016-12-08T05:46:14.769Z,4.94
2016-12-08T05:47:14.759Z,4.92
2016-12-08T05:48:14.750Z,4.91
2016-12-08T05:49:14.737Z,4.92
2016-12-08T05:50:14.724Z,4.97
2016-12-08T05:51:14.710Z,4.92
2016-12-08T05:52:14.696Z,4.94
2016-12-08T05:53:14.686Z,4.91
2016-12-08T05:54:14.679Z,4.96
2016-12-08T05:55:14.662Z,4.92
2016-12-08T05:56:14.654Z,4.96
2016-12-08T05:57:14.642Z,4.96
2016-12-08T05:58:14.628Z,4.99
2016-12-08T05:59:14.615Z,4.99
2016-12-08T06:00:14.596Z,4.92
2016-12-08T06:01:14.593Z,4.88
2016-12-08T06:02:14.874Z,4.91
2016-12-08T06:03:14.563Z,5
2016-12-08T06:04:14.550Z,4.94
2016-12-08T06:05:14.539Z,4.94
2016-12-08T06:06:14.526Z,4.91
2016-12-08T06:07:14.511Z,4.94
2016-12-08T06:08:14.504Z,4.96
2016-12-08T06:09:14.500Z,5.02
2016-12-08T06:10:14.478Z,4.96
2016-12-08T06:11:14.463Z,4.97
2016-12-08T06:12:14.456Z,4.99
2016-12-08T06:13:14.443Z,4.94
2016-12-08T06:14:14.457Z,4.96
2016-12-08T06:15:14.416Z,4.91
2016-12-08T06:16:14.440Z,5
2016-12-08T06:17:14.392Z,4.99
2016-12-08T06:18:14.382Z,4.99
2016-12-08T06:19:14.372Z,4.91
2016-12-08T06:20:14.357Z,4.97
2016-12-08T06:21:14.348Z,4.91
2016-12-08T06:22:14.329Z,4.94
2016-12-08T06:23:14.316Z,4.92
2016-12-08T06:24:14.312Z,4.99
2016-12-08T06:25:14.294Z,4.97
2016-12-08T06:26:14.288Z,4.97
2016-12-08T06:27:14.271Z,5.02
2016-12-08T06:28:14.567Z,5.04
2016-12-08T06:29:14.245Z,5
2016-12-08T06:30:14.260Z,4.99
2016-12-08T06:31:14.220Z,4.96
2016-12-08T06:32:14.210Z,5.02
2016-12-08T06:33:14.197Z,5.06
2016-12-08T06:34:14.186Z,5.07
2016-12-08T06:35:14.178Z,5.02
2016-12-08T06:36:14.158Z,5.03
2016-12-08T06:37:14.150Z,5.02
2016-12-08T06:38:14.137Z,4.99
2016-12-08T06:39:14.123Z,4.97
2016-12-08T06:40:14.117Z,5.02
2016-12-08T06:41:14.396Z,5.06
2016-12-08T06:42:14.089Z,5.02
2016-12-08T06:43:14.075Z,4.96
2016-12-08T06:44:14.059Z,5.04
2016-12-08T06:45:14.057Z,4.97
2016-12-08T06:46:14.041Z,5
2016-12-08T06:47:14.030Z,4.97
2016-12-08T06:48:14.011Z,4.97
2016-12-08T06:49:14.005Z,4.99
2016-12-08T06:50:13.989Z,4.99
2016-12-08T06:51:13.975Z,5.06
2016-12-08T06:52:13.968Z,4.92
2016-12-08T06:53:13.954Z,5
2016-12-08T06:54:13.945Z,4.96
2016-12-08T06:55:13.928Z,4.96
2016-12-08T06:56:13.912Z,4.91
2016-12-08T06:57:13.904Z,4.92
2016-12-08T06:58:13.893Z,4.99
2016-12-08T06:59:13.884Z,4.92
2016-12-08T07:00:13.872Z,4.96
2016-12-08T07:01:13.856Z,4.92
2016-12-08T07:02:13.847Z,4.92
2016-12-08T07:03:13.829Z,4.96
2016-12-08T07:04:13.820Z,4.92
2016-12-08T07:05:13.808Z,4.99
2016-12-08T07:06:14.101Z,4.96
2016-12-08T07:07:13.777Z,4.94
2016-12-08T07:08:13.776Z,4.96
2016-12-08T07:09:13.760Z,4.96
2016-12-08T07:10:13.751Z,4.97
2016-12-08T07:11:13.733Z,4.96
2016-12-08T07:12:13.725Z,4.89
2016-12-08T07:13:13.705Z,4.99
2016-12-08T07:14:13.726Z,4.96
2016-12-08T07:15:13.691Z,4.97
2016-12-08T07:16:13.674Z,5.03
2016-12-08T07:17:13.659Z,5.06
2016-12-08T07:18:13.647Z,5.02
2016-12-08T07:19:13.635Z,5
2016-12-08T07:20:13.625Z,5.07
2016-12-08T07:21:13.612Z,5.12
2016-12-08T07:22:13.595Z,5.04
2016-12-08T07:23:13.584Z,5.03
2016-12-08T07:24:13.570Z,5.07
2016-12-08T07:25:13.567Z,5.07
2016-12-08T07:26:13.551Z,5.12
2016-12-08T07:27:13.537Z,5.17
2016-12-08T07:28:13.523Z,5.22
2016-12-08T07:29:13.526Z,5.15
2016-12-08T07:30:13.500Z,5.17
2016-12-08T07:31:13.494Z,5.18
2016-12-08T07:32:13.477Z,5.13
2016-12-08T07:33:13.471Z,5.18
2016-12-08T07:34:13.451Z,5.21
2016-12-08T07:35:13.473Z,5.22
2016-12-08T07:36:13.427Z,5.21
2016-12-08T07:37:13.419Z,5.2
2016-12-08T07:38:13.410Z,5.35
2016-12-08T07:39:13.390Z,5.36
2016-12-08T07:40:13.381Z,5.33
2016-12-08T07:41:13.374Z,5.4
2016-12-08T07:42:13.357Z,5.33
2016-12-08T07:43:13.349Z,5.38
2016-12-08T07:44:13.331Z,5.4
2016-12-08T07:45:13.326Z,5.46
2016-12-08T07:46:13.311Z,5.54
2016-12-08T07:47:13.295Z,5.53
2016-12-08T07:48:13.290Z,5.51
2016-12-08T07:49:13.281Z,5.58
2016-12-08T07:50:13.260Z,5.57
2016-12-08T07:51:13.252Z,5.54
2016-12-08T07:52:13.242Z,5.57
2016-12-08T07:53:13.227Z,5.58
2016-12-08T07:54:13.217Z,5.67
2016-12-08T07:55:13.212Z,5.68
2016-12-08T07:56:13.189Z,5.67
2016-12-08T07:57:13.185Z,5.72
2016-12-08T07:58:13.169Z,5.75
2016-12-08T07:59:13.154Z,5.82
2016-12-08T08:00:13.445Z,5.89
2016-12-08T08:01:13.139Z,5.85
2016-12-08T08:02:13.124Z,5.86
2016-12-08T08:03:13.113Z,5.93
2016-12-08T08:04:13.098Z,5.93
2016-12-08T08:05:13.089Z,5.93
2016-12-08T08:06:13.076Z,5.96
2016-12-08T08:07:13.067Z,5.96
2016-12-08T08:08:13.057Z,6.09
2016-12-08T08:09:13.054Z,6.06
2016-12-08T08:10:13.039Z,6.11
2016-12-08T08:11:13.022Z,6.25
2016-12-08T08:12:13.009Z,6.25
2016-12-08T08:13:12.999Z,6.27
2016-12-08T08:14:12.987Z,6.37
2016-12-08T08:15:12.973Z,6.31
2016-12-08T08:16:12.968Z,6.44
2016-12-08T08:17:12.960Z,6.46
2016-12-08T08:18:12.944Z,6.55
2016-12-08T08:19:12.939Z,6.59
2016-12-08T08:20:12.925Z,6.66
2016-12-08T08:21:12.911Z,6.62
2016-12-08T08:22:12.899Z,6.74
2016-12-08T08:23:12.894Z,6.84
2016-12-08T08:24:12.875Z,6.8
2016-12-08T08:25:12.865Z,6.87
2016-12-08T08:26:12.856Z,7.02
2016-12-08T08:27:12.867Z,6.95
2016-12-08T08:28:12.832Z,6.98
2016-12-08T08:29:12.823Z,7.09
2016-12-08T08:30:12.804Z,7.07
2016-12-08T08:31:13.109Z,7.09
2016-12-08T08:32:12.793Z,7.21
2016-12-08T08:33:12.779Z,7.28
2016-12-08T08:34:12.769Z,7.3
2016-12-08T08:35:12.760Z,7.42
2016-12-08T08:36:12.754Z,7.52
2016-12-08T08:37:12.739Z,7.6
2016-12-08T08:38:12.724Z,7.53
2016-12-08T08:39:12.743Z,7.53
2016-12-08T08:40:12.704Z,7.6
2016-12-08T08:41:12.701Z,7.72
2016-12-08T08:42:12.984Z,7.72
2016-12-08T08:43:12.677Z,7.75
2016-12-08T08:44:12.665Z,7.74
2016-12-08T08:45:12.658Z,7.82
2016-12-08T08:46:12.646Z,7.85
2016-12-08T08:47:12.641Z,7.98
2016-12-08T08:48:12.831Z,7.98
2016-12-08T08:49:12.623Z,8
2016-12-08T08:50:12.609Z,8.02
2016-12-08T08:51:12.604Z,8.16
2016-12-08T08:52:12.587Z,8.16
2016-12-08T08:53:12.578Z,8.26
2016-12-08T08:54:12.570Z,8.33
2016-12-08T08:55:12.559Z,8.29
2016-12-08T08:56:12.852Z,8.37
2016-12-08T08:57:12.540Z,8.44
2016-12-08T08:58:12.534Z,8.43
2016-12-08T08:59:12.517Z,8.48
2016-12-08T09:00:12.512Z,8.5
2016-12-08T09:01:12.702Z,8.59
2016-12-08T09:02:12.497Z,8.63
2016-12-08T09:03:12.482Z,8.55
2016-12-08T09:04:12.469Z,8.68
2016-12-08T09:05:12.469Z,8.76
2016-12-08T09:06:12.458Z,8.71
2016-12-08T09:07:12.443Z,8.7
2016-12-08T09:08:12.438Z,8.74
2016-12-08T09:09:12.633Z,8.8
2016-12-08T09:10:12.423Z,8.84
2016-12-08T09:11:12.439Z,8.83
2016-12-08T09:12:12.604Z,8.89
2016-12-08T09:13:12.390Z,8.89
2016-12-08T09:14:12.383Z,8.89
2016-12-08T09:15:12.376Z,8.91
2016-12-08T09:16:12.391Z,8.92
2016-12-08T09:17:12.354Z,8.98
2016-12-08T09:18:12.355Z,8.95
2016-12-08T09:19:12.336Z,9.01
2016-12-08T09:20:12.529Z,9.01
2016-12-08T09:21:12.316Z,9.01
2016-12-08T09:22:12.314Z,9.1
2016-12-08T09:23:12.300Z,9.17
2016-12-08T09:24:12.293Z,9.18
2016-12-08T09:25:12.285Z,9.15
2016-12-08T09:26:12.316Z,9.21
2016-12-08T09:27:12.269Z,9.2
2016-12-08T09:28:12.263Z,9.2
2016-12-08T09:29:12.252Z,9.24
2016-12-08T09:30:12.238Z,9.23
2016-12-08T09:31:12.237Z,9.28
2016-12-08T09:32:12.227Z,9.32
2016-12-08T09:33:12.218Z,9.26
2016-12-08T09:34:12.207Z,9.32
2016-12-08T09:35:12.203Z,9.42
2016-12-08T09:36:12.185Z,9.39
2016-12-08T09:37:12.187Z,9.33
2016-12-08T09:38:12.176Z,9.48
2016-12-08T09:39:12.164Z,9.51
2016-12-08T09:40:12.155Z,9.53
2016-12-08T09:41:12.151Z,9.5
2016-12-08T09:42:12.161Z,9.57
2016-12-08T09:43:12.128Z,9.5
2016-12-08T09:44:12.428Z,9.58
2016-12-08T09:45:12.114Z,9.57
2016-12-08T09:46:12.110Z,9.58
2016-12-08T09:47:12.093Z,9.64
2016-12-08T09:48:12.088Z,9.68
2016-12-08T09:49:12.076Z,9.57
2016-12-08T09:50:12.071Z,9.72
2016-12-08T09:51:12.060Z,9.56
2016-12-08T09:52:12.056Z,9.65
2016-12-08T09:53:12.043Z,9.69
2016-12-08T09:54:12.040Z,9.69
2016-12-08T09:55:12.027Z,9.68
2016-12-08T09:56:12.013Z,9.78
2016-12-08T09:57:12.007Z,9.71
2016-12-08T09:58:12.003Z,9.75
2016-12-08T09:59:11.998Z,9.71
2016-12-08T10:00:11.990Z,9.69
2016-12-08T10:01:11.979Z,9.68
2016-12-08T10:02:11.971Z,9.71
2016-12-08T10:03:11.958Z,9.71
2016-12-08T10:04:11.960Z,9.72
2016-12-08T10:05:11.941Z,9.71
2016-12-08T10:06:11.934Z,9.66
2016-12-08T10:07:11.932Z,9.69
2016-12-08T10:08:11.926Z,9.6
2016-12-08T10:09:11.913Z,9.66
2016-12-08T10:10:11.923Z,9.64
2016-12-08T10:11:11.898Z,9.57
2016-12-08T10:12:11.881Z,9.58
2016-12-08T10:13:11.875Z,9.53
2016-12-08T10:14:11.876Z,9.53
2016-12-08T10:15:11.860Z,9.53
2016-12-08T10:16:11.853Z,9.53
2016-12-08T10:17:11.844Z,9.38
2016-12-08T10:18:12.142Z,9.5
2016-12-08T10:19:11.823Z,9.36
2016-12-08T10:20:11.820Z,9.4
2016-12-08T10:21:11.812Z,9.4
2016-12-08T10:22:11.803Z,9.42
2016-12-08T10:23:11.797Z,9.38
2016-12-08T10:24:11.783Z,9.5
2016-12-08T10:25:11.778Z,9.38
2016-12-08T10:26:11.772Z,9.33
2016-12-08T10:27:11.759Z,9.39
2016-12-08T10:28:12.051Z,9.38
2016-12-08T10:29:11.747Z,9.43
2016-12-08T10:30:11.733Z,9.51
2016-12-08T10:31:11.723Z,9.43
2016-12-08T10:32:11.718Z,9.47
2016-12-08T10:33:11.707Z,9.48
2016-12-08T10:34:11.705Z,9.4
2016-12-08T10:35:11.692Z,9.4
2016-12-08T10:36:11.985Z,9.47
2016-12-08T10:37:11.699Z,9.53
2016-12-08T10:38:11.668Z,9.56
2016-12-08T10:39:11.657Z,9.65
2016-12-08T10:40:11.651Z,9.68
2016-12-08T10:41:11.938Z,9.71
2016-12-08T10:42:11.638Z,9.71
2016-12-08T10:43:11.622Z,9.75
2016-12-08T10:44:11.619Z,9.78
2016-12-08T10:45:11.606Z,9.87
2016-12-08T10:46:11.598Z,9.87
2016-12-08T10:47:11.586Z,9.94
2016-12-08T10:48:11.585Z,9.99
2016-12-08T10:49:11.573Z,10.07
2016-12-08T10:50:11.564Z,10.09
2016-12-08T10:51:11.564Z,10.2
2016-12-08T10:52:11.552Z,10.18
2016-12-08T10:53:11.543Z,10.25
2016-12-08T10:54:11.540Z,10.33
2016-12-08T10:55:11.526Z,10.26
2016-12-08T10:56:11.517Z,10.42
2016-12-08T10:57:11.722Z,10.41
2016-12-08T10:58:11.505Z,10.45
2016-12-08T10:59:11.493Z,10.59
2016-12-08T11:00:11.491Z,10.7
2016-12-08T11:01:11.484Z,10.74
2016-12-08T11:02:11.770Z,10.74
2016-12-08T11:03:11.464Z,10.91
2016-12-08T11:04:11.460Z,10.97
2016-12-08T11:05:11.451Z,10.94
2016-12-08T11:06:11.439Z,11.07
2016-12-08T11:07:11.428Z,11.07
2016-12-08T11:08:11.427Z,11.25
2016-12-08T11:09:11.418Z,11.28
2016-12-08T11:10:11.411Z,11.25
2016-12-08T11:11:11.407Z,11.43
2016-12-08T11:12:11.398Z,11.47
2016-12-08T11:13:11.396Z,11.46
2016-12-08T11:14:11.689Z,11.51
2016-12-08T11:15:11.375Z,11.7
2016-12-08T11:16:11.366Z,11.7
2016-12-08T11:17:11.358Z,11.73
2016-12-08T11:18:11.355Z,11.79
2016-12-08T11:19:11.350Z,11.85
2016-12-08T11:20:11.342Z,11.85
2016-12-08T11:21:11.336Z,11.79
2016-12-08T11:22:11.632Z,11.86
2016-12-08T11:23:11.321Z,11.99
2016-12-08T11:24:11.342Z,12.01
2016-12-08T11:25:11.312Z,12.07
2016-12-08T11:26:11.300Z,12.04
2016-12-08T11:27:11.298Z,11.99
2016-12-08T11:28:11.290Z,11.99
2016-12-08T11:29:11.284Z,12.07
2016-12-08T11:30:11.578Z,12.1
2016-12-08T11:31:11.269Z,12.04
2016-12-08T11:32:11.258Z,12.04
2016-12-08T11:33:11.255Z,12.19
2016-12-08T11:34:11.248Z,12.12
2016-12-08T11:35:11.240Z,12.17
2016-12-08T11:36:11.588Z,12.01
2016-12-08T11:37:11.232Z,12.04
2016-12-08T11:38:11.224Z,12.01
2016-12-08T11:39:11.221Z,12.09
2016-12-08T11:40:11.212Z,12.01
2016-12-08T11:41:11.210Z,12.04
2016-12-08T11:42:11.204Z,12.04
2016-12-08T11:43:11.197Z,12.05
2016-12-08T11:44:11.191Z,12.14
2016-12-08T11:45:11.182Z,12.07
2016-12-08T11:46:11.174Z,11.99
2016-12-08T11:47:11.171Z,12.01
2016-12-08T11:48:11.166Z,11.99
2016-12-08T11:49:11.161Z,12.09
2016-12-08T11:50:11.153Z,12.13
2016-12-08T11:51:11.144Z,12.07
2016-12-08T11:52:11.132Z,12.13
2016-12-08T11:53:11.127Z,12.07
2016-12-08T11:54:11.130Z,12.1
2016-12-08T11:55:11.115Z,12.12
2016-12-08T11:56:11.113Z,12.05
2016-12-08T11:57:11.103Z,12.05
2016-12-08T11:58:11.104Z,12.14
2016-12-08T11:59:11.092Z,12.01
2016-12-08T12:00:11.080Z,12.05
2016-12-08T12:01:11.072Z,12.12
2016-12-08T12:02:11.078Z,12.1
2016-12-08T12:03:11.062Z,12.01
2016-12-08T12:04:11.073Z,11.99
2016-12-08T12:05:11.047Z,11.99
2016-12-08T12:06:11.044Z,12.05
2016-12-08T12:07:11.042Z,11.96
2016-12-08T12:08:11.032Z,11.91
2016-12-08T12:09:11.022Z,11.9
2016-12-08T12:10:11.018Z,11.9
2016-12-08T12:11:11.315Z,11.96
2016-12-08T12:12:11.014Z,11.85
2016-12-08T12:13:10.996Z,11.79
2016-12-08T12:14:10.990Z,11.78
2016-12-08T12:15:10.991Z,11.72
2016-12-08T12:16:10.981Z,11.69
2016-12-08T12:17:10.975Z,11.65
2016-12-08T12:18:10.968Z,11.76
2016-12-08T12:19:10.958Z,11.69
2016-12-08T12:20:10.956Z,11.67
2016-12-08T12:21:11.251Z,11.62
2016-12-08T12:22:10.942Z,11.54
2016-12-08T12:23:10.932Z,11.61
2016-12-08T12:24:10.929Z,11.47
2016-12-08T12:25:10.917Z,11.46
2016-12-08T12:26:10.910Z,11.52
2016-12-08T12:27:10.909Z,11.43
2016-12-08T12:28:10.897Z,11.43
2016-12-08T12:29:10.894Z,11.37
2016-12-08T12:30:10.881Z,11.39
2016-12-08T12:31:10.871Z,11.33
2016-12-08T12:32:10.871Z,11.29
2016-12-08T12:33:10.859Z,11.33
2016-12-08T12:34:10.863Z,11.29
2016-12-08T12:35:10.851Z,11.33
2016-12-08T12:36:10.840Z,11.28
2016-12-08T12:37:10.836Z,11.32
2016-12-08T12:38:10.827Z,11.25
2016-12-08T12:39:10.823Z,11.28
2016-12-08T12:40:10.817Z,11.32
2016-12-08T12:41:11.110Z,11.28
2016-12-08T12:42:10.794Z,11.24
2016-12-08T12:43:10.794Z,11.22
2016-12-08T12:44:10.781Z,11.21
2016-12-08T12:45:10.780Z,11.22
2016-12-08T12:46:10.771Z,11.22
2016-12-08T12:47:11.063Z,11.25
2016-12-08T12:48:10.759Z,11.15
2016-12-08T12:49:10.748Z,11.1
2016-12-08T12:50:10.743Z,11.03
2016-12-08T12:51:10.732Z,11.06
2016-12-08T12:52:10.724Z,11.07
2016-12-08T12:53:10.714Z,11.06
2016-12-08T12:54:10.715Z,11.06
2016-12-08T12:55:10.703Z,11.07
2016-12-08T12:56:10.700Z,11.03
2016-12-08T12:57:10.687Z,11.24
2016-12-08T12:58:10.679Z,11.27
2016-12-08T12:59:10.671Z,11.18
2016-12-08T13:00:10.666Z,11.28
2016-12-08T13:01:10.660Z,11.28
2016-12-08T13:02:12.655Z,11.25
2016-12-08T13:03:10.649Z,11.27
2016-12-08T13:04:10.638Z,11.32
2016-12-08T13:05:10.625Z,11.29
2016-12-08T13:06:10.623Z,11.19
2016-12-08T13:07:10.625Z,11.29
2016-12-08T13:08:10.609Z,11.28
2016-12-08T13:09:10.601Z,11.36
2016-12-08T13:10:10.896Z,11.32
2016-12-08T13:11:10.588Z,11.29
2016-12-08T13:12:10.572Z,11.35
2016-12-08T13:13:10.579Z,11.35
2016-12-08T13:14:10.565Z,11.35
2016-12-08T13:15:10.570Z,11.27
2016-12-08T13:16:10.854Z,11.36
2016-12-08T13:17:10.543Z,11.35